createdAt,value
2019-01-23T00:00:49.301Z,930.03
2019-01-23T00:01:49.280Z,930.05
2019-01-23T00:02:49.275Z,930.05
2019-01-23T00:03:49.262Z,930.02
2019-01-23T00:04:49.250Z,930.02
2019-01-23T00:05:49.234Z,930.02
2019-01-23T00:06:49.223Z,929.96
2019-01-23T00:07:49.230Z,930.02
2019-01-23T00:08:49.192Z,929.96
2019-01-23T00:09:49.181Z,929.98
2019-01-23T00:10:49.166Z,930.00
2019-01-23T00:11:49.154Z,930.00
2019-01-23T00:12:49.139Z,929.95
2019-01-23T00:13:49.128Z,929.96
2019-01-23T00:14:49.111Z,929.91
2019-01-23T00:15:49.100Z,929.86
2019-01-23T00:16:49.089Z,929.87
2019-01-23T00:17:49.072Z,929.83
2019-01-23T00:18:49.060Z,929.85
2019-01-23T00:19:49.048Z,929.82
2019-01-23T00:20:49.033Z,929.78
2019-01-23T00:21:49.019Z,929.79
2019-01-23T00:22:49.006Z,929.75
2019-01-23T00:23:48.992Z,929.77
2019-01-23T00:24:48.979Z,929.79
2019-01-23T00:25:48.965Z,929.75
2019-01-23T00:26:48.952Z,929.76
2019-01-23T00:27:48.938Z,929.74
2019-01-23T00:28:48.926Z,929.73
2019-01-23T00:29:48.911Z,929.70
2019-01-23T00:30:48.899Z,929.64
2019-01-23T00:31:48.886Z,929.65
2019-01-23T00:32:48.871Z,929.65
2019-01-23T00:33:48.862Z,929.60
2019-01-23T00:34:48.845Z,929.55
2019-01-23T00:35:48.833Z,929.59
2019-01-23T00:36:48.818Z,929.59
2019-01-23T00:37:48.809Z,929.58
2019-01-23T00:38:48.794Z,929.57
2019-01-23T00:39:48.781Z,929.56
2019-01-23T00:40:48.767Z,929.52
2019-01-23T00:41:48.755Z,929.49
2019-01-23T00:42:48.742Z,929.52
2019-01-23T00:43:48.728Z,929.45
2019-01-23T00:44:48.713Z,929.49
2019-01-23T00:45:48.703Z,929.51
2019-01-23T00:46:48.687Z,929.47
2019-01-23T00:47:48.676Z,929.51
2019-01-23T00:48:48.662Z,929.46
2019-01-23T00:49:48.649Z,929.49
2019-01-23T00:50:48.640Z,929.48
2019-01-23T00:51:48.622Z,929.46
2019-01-23T00:52:48.607Z,929.51
2019-01-23T00:53:48.596Z,929.45
2019-01-23T00:54:48.581Z,929.48
2019-01-23T00:55:50.106Z,929.50
2019-01-23T00:56:48.552Z,929.46
2019-01-23T00:57:48.540Z,929.49
2019-01-23T00:58:49.242Z,929.48
2019-01-23T00:59:48.527Z,929.47
2019-01-23T01:00:48.505Z,929.45
2019-01-23T01:01:48.501Z,929.51
2019-01-23T01:02:48.480Z,929.45
2019-01-23T01:03:48.467Z,929.45
2019-01-23T01:04:48.452Z,929.40
2019-01-23T01:05:48.440Z,929.37
2019-01-23T01:06:48.428Z,929.37
2019-01-23T01:07:48.414Z,929.33
2019-01-23T01:08:48.397Z,929.28
2019-01-23T01:09:48.387Z,929.30
2019-01-23T01:10:48.373Z,929.24
2019-01-23T01:11:48.364Z,929.27
2019-01-23T01:12:48.367Z,929.26
2019-01-23T01:13:48.335Z,929.23
2019-01-23T01:14:48.324Z,929.21
2019-01-23T01:15:48.312Z,929.25
2019-01-23T01:16:48.295Z,929.21
2019-01-23T01:17:48.283Z,929.22
2019-01-23T01:18:48.272Z,929.21
2019-01-23T01:19:48.258Z,929.21
2019-01-23T01:20:48.243Z,929.14
2019-01-23T01:21:48.228Z,929.16
2019-01-23T01:22:48.235Z,929.14
2019-01-23T01:23:48.203Z,929.14
2019-01-23T01:24:48.190Z,929.17
2019-01-23T01:25:48.198Z,929.12
2019-01-23T01:26:48.167Z,929.12
2019-01-23T01:27:48.151Z,929.12
2019-01-23T01:28:48.137Z,929.11
2019-01-23T01:29:48.113Z,929.08
2019-01-23T01:30:48.109Z,929.08
2019-01-23T01:31:48.097Z,929.05
2019-01-23T01:32:48.082Z,929.08
2019-01-23T01:33:48.070Z,929.03
2019-01-23T01:34:48.056Z,929.05
2019-01-23T01:35:48.046Z,929.03
2019-01-23T01:36:48.029Z,929.02
2019-01-23T01:37:48.015Z,929.01
2019-01-23T01:38:48.019Z,928.92
2019-01-23T01:39:47.991Z,928.93
2019-01-23T01:40:47.975Z,928.93
2019-01-23T01:41:47.962Z,928.89
2019-01-23T01:42:47.981Z,928.88
2019-01-23T01:43:47.934Z,928.89
2019-01-23T01:44:47.935Z,928.86
2019-01-23T01:45:47.907Z,928.81
2019-01-23T01:46:47.937Z,928.84
2019-01-23T01:47:47.882Z,928.84
2019-01-23T01:48:47.865Z,928.81
2019-01-23T01:49:47.854Z,928.79
2019-01-23T01:50:47.841Z,928.83
2019-01-23T01:51:47.828Z,928.71
2019-01-23T01:52:47.819Z,928.72
2019-01-23T01:53:47.802Z,928.73
2019-01-23T01:54:47.788Z,928.72
2019-01-23T01:55:47.775Z,928.71
2019-01-23T01:56:47.759Z,928.67
2019-01-23T01:57:47.743Z,928.70
2019-01-23T01:58:47.733Z,928.69
2019-01-23T01:59:47.720Z,928.69
2019-01-23T02:00:47.708Z,928.67
2019-01-23T02:01:47.690Z,928.66
2019-01-23T02:02:47.680Z,928.62
2019-01-23T02:03:47.667Z,928.57
2019-01-23T02:04:47.676Z,928.59
2019-01-23T02:05:47.639Z,928.61
2019-01-23T02:06:47.625Z,928.60
2019-01-23T02:07:47.612Z,928.57
2019-01-23T02:08:47.598Z,928.60
2019-01-23T02:09:47.588Z,928.56
2019-01-23T02:10:47.574Z,928.54
2019-01-23T02:11:47.553Z,928.57
2019-01-23T02:12:47.543Z,928.56
2019-01-23T02:13:47.529Z,928.54
2019-01-23T02:14:47.519Z,928.50
2019-01-23T02:15:47.509Z,928.46
2019-01-23T02:16:47.491Z,928.46
2019-01-23T02:17:47.498Z,928.43
2019-01-23T02:18:47.462Z,928.44
2019-01-23T02:19:47.462Z,928.40
2019-01-23T02:20:47.439Z,928.38
2019-01-23T02:21:47.421Z,928.37
2019-01-23T02:22:47.410Z,928.38
2019-01-23T02:23:47.393Z,928.38
2019-01-23T02:24:47.386Z,928.39
2019-01-23T02:25:47.370Z,928.36
2019-01-23T02:26:47.354Z,928.34
2019-01-23T02:27:47.339Z,928.32
2019-01-23T02:28:47.326Z,928.30
2019-01-23T02:29:47.313Z,928.26
2019-01-23T02:30:47.327Z,928.27
2019-01-23T02:31:47.285Z,928.23
2019-01-23T02:32:47.275Z,928.25
2019-01-23T02:33:47.260Z,928.20
2019-01-23T02:34:47.245Z,928.20
2019-01-23T02:35:47.286Z,928.18
2019-01-23T02:36:48.561Z,928.17
2019-01-23T02:37:47.204Z,928.15
2019-01-23T02:38:47.191Z,928.11
2019-01-23T02:39:47.178Z,928.13
2019-01-23T02:40:47.166Z,928.09
2019-01-23T02:41:47.144Z,928.08
2019-01-23T02:42:47.139Z,928.03
2019-01-23T02:43:47.136Z,927.96
2019-01-23T02:44:47.110Z,927.97
2019-01-23T02:45:47.101Z,927.92
2019-01-23T02:46:47.083Z,927.94
2019-01-23T02:47:47.071Z,927.92
2019-01-23T02:48:47.079Z,927.94
2019-01-23T02:49:47.041Z,927.85
2019-01-23T02:50:47.028Z,927.91
2019-01-23T02:51:47.012Z,927.87
2019-01-23T02:52:46.999Z,927.88
2019-01-23T02:53:46.981Z,927.91
2019-01-23T02:54:46.974Z,927.87
2019-01-23T02:55:46.960Z,927.82
2019-01-23T02:56:46.944Z,927.87
2019-01-23T02:57:46.932Z,927.79
2019-01-23T02:58:46.921Z,927.80
2019-01-23T02:59:46.924Z,927.79
2019-01-23T03:00:46.901Z,927.78
2019-01-23T03:01:46.878Z,927.78
2019-01-23T03:02:46.863Z,927.73
2019-01-23T03:03:46.859Z,927.74
2019-01-23T03:04:46.874Z,927.68
2019-01-23T03:05:46.831Z,927.69
2019-01-23T03:06:46.809Z,927.66
2019-01-23T03:07:46.797Z,927.66
2019-01-23T03:08:46.771Z,927.66
2019-01-23T03:09:46.768Z,927.64
2019-01-23T03:10:46.795Z,927.60
2019-01-23T03:11:46.741Z,927.59
2019-01-23T03:12:46.735Z,927.57
2019-01-23T03:13:46.712Z,927.57
2019-01-23T03:14:46.700Z,927.51
2019-01-23T03:15:46.678Z,927.57
2019-01-23T03:16:46.674Z,927.55
2019-01-23T03:17:46.660Z,927.51
2019-01-23T03:18:46.648Z,927.55
2019-01-23T03:19:46.632Z,927.50
2019-01-23T03:20:46.617Z,927.53
2019-01-23T03:21:46.603Z,927.51
2019-01-23T03:22:46.595Z,927.47
2019-01-23T03:23:46.577Z,927.49
2019-01-23T03:24:46.564Z,927.51
2019-01-23T03:25:46.549Z,927.50
2019-01-23T03:26:46.594Z,927.52
2019-01-23T03:27:46.529Z,927.49
2019-01-23T03:28:46.510Z,927.48
2019-01-23T03:29:46.494Z,927.47
2019-01-23T03:30:46.482Z,927.48
2019-01-23T03:31:46.470Z,927.47
2019-01-23T03:32:46.457Z,927.47
2019-01-23T03:33:46.441Z,927.43
2019-01-23T03:34:46.427Z,927.46
2019-01-23T03:35:46.412Z,927.43
2019-01-23T03:36:46.403Z,927.43
2019-01-23T03:37:46.388Z,927.39
2019-01-23T03:38:46.375Z,927.42
2019-01-23T03:39:46.360Z,927.38
2019-01-23T03:40:46.344Z,927.39
2019-01-23T03:41:46.348Z,927.36
2019-01-23T03:42:46.319Z,927.38
2019-01-23T03:43:46.306Z,927.37
2019-01-23T03:44:46.293Z,927.37
2019-01-23T03:45:46.270Z,927.35
2019-01-23T03:46:46.264Z,927.32
2019-01-23T03:47:46.252Z,927.30
2019-01-23T03:48:46.226Z,927.31
2019-01-23T03:49:46.222Z,927.32
2019-01-23T03:50:46.209Z,927.25
2019-01-23T03:51:46.196Z,927.23
2019-01-23T03:52:46.212Z,927.24
2019-01-23T03:53:46.168Z,927.24
2019-01-23T03:54:46.156Z,927.26
2019-01-23T03:55:46.146Z,927.24
2019-01-23T03:56:46.128Z,927.22
2019-01-23T03:57:46.120Z,927.22
2019-01-23T03:58:46.102Z,927.21
2019-01-23T03:59:46.088Z,927.26
2019-01-23T04:00:46.071Z,927.19
2019-01-23T04:01:46.053Z,927.22
2019-01-23T04:02:46.054Z,927.19
2019-01-23T04:03:46.038Z,927.18
2019-01-23T04:04:46.024Z,927.16
2019-01-23T04:05:46.008Z,927.18
2019-01-23T04:06:45.997Z,927.14
2019-01-23T04:07:45.982Z,927.15
2019-01-23T04:08:45.972Z,927.15
2019-01-23T04:09:45.956Z,927.15
2019-01-23T04:10:45.941Z,927.17
2019-01-23T04:11:45.931Z,927.16
2019-01-23T04:12:45.917Z,927.15
2019-01-23T04:13:45.902Z,927.11
2019-01-23T04:14:45.889Z,927.15
2019-01-23T04:15:45.877Z,927.10
2019-01-23T04:16:45.862Z,927.09
2019-01-23T04:17:45.853Z,927.07
2019-01-23T04:18:45.837Z,927.07
2019-01-23T04:19:45.825Z,927.06
2019-01-23T04:20:45.809Z,927.06
2019-01-23T04:21:45.787Z,927.05
2019-01-23T04:22:45.805Z,927.04
2019-01-23T04:23:45.771Z,927.03
2019-01-23T04:24:45.758Z,927.03
2019-01-23T04:25:45.743Z,926.99
2019-01-23T04:26:45.731Z,927.01
2019-01-23T04:27:45.774Z,926.97
2019-01-23T04:28:48.425Z,926.96
2019-01-23T04:29:45.691Z,926.91
2019-01-23T04:30:45.676Z,926.93
2019-01-23T04:31:45.663Z,926.89
2019-01-23T04:32:45.658Z,926.90
2019-01-23T04:33:45.638Z,926.87
2019-01-23T04:34:45.624Z,926.90
2019-01-23T04:35:45.609Z,926.87
2019-01-23T04:36:45.596Z,926.87
2019-01-23T04:37:45.587Z,926.86
2019-01-23T04:38:45.569Z,926.86
2019-01-23T04:39:45.557Z,926.81
2019-01-23T04:40:45.543Z,926.82
2019-01-23T04:41:45.529Z,926.82
2019-01-23T04:42:45.518Z,926.81
2019-01-23T04:43:45.502Z,926.78
2019-01-23T04:44:45.493Z,926.73
2019-01-23T04:45:45.475Z,926.76
2019-01-23T04:46:45.455Z,926.78
2019-01-23T04:47:45.450Z,926.76
2019-01-23T04:48:45.438Z,926.76
2019-01-23T04:49:45.423Z,926.75
2019-01-23T04:50:45.408Z,926.78
2019-01-23T04:51:45.417Z,926.73
2019-01-23T04:52:45.385Z,926.74
2019-01-23T04:53:45.362Z,926.69
2019-01-23T04:54:45.355Z,926.68
2019-01-23T04:55:45.345Z,926.68
2019-01-23T04:56:45.341Z,926.68
2019-01-23T04:57:45.348Z,926.68
2019-01-23T04:58:45.308Z,926.65
2019-01-23T04:59:46.976Z,926.65
2019-01-23T05:00:45.274Z,926.62
2019-01-23T05:01:45.261Z,926.59
2019-01-23T05:02:45.256Z,926.62
2019-01-23T05:03:45.239Z,926.56
2019-01-23T05:04:45.221Z,926.56
2019-01-23T05:05:45.207Z,926.55
2019-01-23T05:06:45.193Z,926.55
2019-01-23T05:07:45.183Z,926.50
2019-01-23T05:08:45.168Z,926.52
2019-01-23T05:09:45.158Z,926.52
2019-01-23T05:10:45.142Z,926.50
2019-01-23T05:11:45.128Z,926.53
2019-01-23T05:12:45.115Z,926.52
2019-01-23T05:13:45.103Z,926.50
2019-01-23T05:14:45.095Z,926.49
2019-01-23T05:15:45.077Z,926.48
2019-01-23T05:16:45.061Z,926.47
2019-01-23T05:17:45.049Z,926.45
2019-01-23T05:18:45.037Z,926.45
2019-01-23T05:19:45.016Z,926.42
2019-01-23T05:20:45.011Z,926.42
2019-01-23T05:21:44.996Z,926.41
2019-01-23T05:22:44.984Z,926.43
2019-01-23T05:23:44.972Z,926.41
2019-01-23T05:24:44.956Z,926.43
2019-01-23T05:25:44.944Z,926.41
2019-01-23T05:26:44.935Z,926.44
2019-01-23T05:27:44.918Z,926.40
2019-01-23T05:28:44.902Z,926.37
2019-01-23T05:29:44.888Z,926.42
2019-01-23T05:30:44.876Z,926.42
2019-01-23T05:31:44.865Z,926.44
2019-01-23T05:32:44.852Z,926.41
2019-01-23T05:33:44.836Z,926.39
2019-01-23T05:34:44.827Z,926.39
2019-01-23T05:35:44.810Z,926.39
2019-01-23T05:36:44.795Z,926.38
2019-01-23T05:37:44.787Z,926.33
2019-01-23T05:38:44.771Z,926.36
2019-01-23T05:39:44.997Z,926.35
2019-01-23T05:40:44.745Z,926.32
2019-01-23T05:41:44.730Z,926.36
2019-01-23T05:42:44.717Z,926.30
2019-01-23T05:43:44.704Z,926.31
2019-01-23T05:44:44.688Z,926.26
2019-01-23T05:45:44.675Z,926.29
2019-01-23T05:46:44.661Z,926.22
2019-01-23T05:47:44.649Z,926.25
2019-01-23T05:48:44.634Z,926.23
2019-01-23T05:49:44.619Z,926.23
2019-01-23T05:50:44.614Z,926.24
2019-01-23T05:51:44.609Z,926.22
2019-01-23T05:52:44.603Z,926.24
2019-01-23T05:53:44.563Z,926.19
2019-01-23T05:54:44.552Z,926.18
2019-01-23T05:55:44.540Z,926.21
2019-01-23T05:56:44.525Z,926.18
2019-01-23T05:57:44.514Z,926.16
2019-01-23T05:58:44.504Z,926.13
2019-01-23T05:59:44.483Z,926.20
2019-01-23T06:00:44.472Z,926.13
2019-01-23T06:01:44.457Z,926.15
2019-01-23T06:02:44.445Z,926.17
2019-01-23T06:03:44.435Z,926.15
2019-01-23T06:04:44.419Z,926.19
2019-01-23T06:05:44.407Z,926.20
2019-01-23T06:06:44.407Z,926.19
2019-01-23T06:07:44.380Z,926.21
2019-01-23T06:08:46.098Z,926.17
2019-01-23T06:09:44.354Z,926.16
2019-01-23T06:10:44.339Z,926.15
2019-01-23T06:11:44.334Z,926.15
2019-01-23T06:12:44.317Z,926.16
2019-01-23T06:13:44.298Z,926.15
2019-01-23T06:14:44.276Z,926.15
2019-01-23T06:15:44.272Z,926.11
2019-01-23T06:16:44.256Z,926.14
2019-01-23T06:17:44.245Z,926.14
2019-01-23T06:18:44.230Z,926.15
2019-01-23T06:19:44.218Z,926.12
2019-01-23T06:20:44.203Z,926.11
2019-01-23T06:21:44.190Z,926.09
2019-01-23T06:22:44.178Z,926.12
2019-01-23T06:23:44.164Z,926.07
2019-01-23T06:24:44.137Z,926.10
2019-01-23T06:25:44.136Z,926.12
2019-01-23T06:26:44.123Z,926.13
2019-01-23T06:27:44.110Z,926.08
2019-01-23T06:28:44.094Z,926.11
2019-01-23T06:29:44.085Z,926.12
2019-01-23T06:30:44.067Z,926.10
2019-01-23T06:31:44.058Z,926.15
2019-01-23T06:32:44.049Z,926.15
2019-01-23T06:33:44.028Z,926.09
2019-01-23T06:34:44.014Z,926.07
2019-01-23T06:35:44.001Z,926.10
2019-01-23T06:36:43.986Z,926.09
2019-01-23T06:37:43.974Z,926.10
2019-01-23T06:38:43.966Z,926.13
2019-01-23T06:39:43.948Z,926.11
2019-01-23T06:40:43.934Z,926.09
2019-01-23T06:41:43.920Z,926.09
2019-01-23T06:42:43.905Z,926.09
2019-01-23T06:43:43.892Z,926.10
2019-01-23T06:44:43.879Z,926.06
2019-01-23T06:45:43.865Z,926.04
2019-01-23T06:46:43.850Z,926.06
2019-01-23T06:47:43.839Z,926.04
2019-01-23T06:48:43.824Z,926.02
2019-01-23T06:49:43.832Z,926.05
2019-01-23T06:50:43.798Z,926.01
2019-01-23T06:51:43.783Z,926.02
2019-01-23T06:52:43.777Z,926.02
2019-01-23T06:53:43.756Z,926.00
2019-01-23T06:54:43.743Z,926.00
2019-01-23T06:55:43.729Z,925.97
2019-01-23T06:56:43.715Z,925.97
2019-01-23T06:57:43.704Z,925.97
2019-01-23T06:58:43.688Z,925.99
2019-01-23T06:59:43.717Z,925.97
2019-01-23T07:00:43.663Z,926.00
2019-01-23T07:01:43.646Z,925.96
2019-01-23T07:02:43.637Z,925.96
2019-01-23T07:03:43.620Z,925.88
2019-01-23T07:04:43.613Z,925.90
2019-01-23T07:05:43.593Z,925.89
2019-01-23T07:06:43.577Z,925.88
2019-01-23T07:07:43.566Z,925.90
2019-01-23T07:08:43.553Z,925.84
2019-01-23T07:09:43.537Z,925.86
2019-01-23T07:10:43.527Z,925.88
2019-01-23T07:11:43.511Z,925.85
2019-01-23T07:12:43.488Z,925.89
2019-01-23T07:13:43.483Z,925.87
2019-01-23T07:14:43.471Z,925.87
2019-01-23T07:15:43.457Z,925.88
2019-01-23T07:16:43.444Z,925.87
2019-01-23T07:17:43.445Z,925.85
2019-01-23T07:18:43.418Z,925.84
2019-01-23T07:19:43.409Z,925.89
2019-01-23T07:20:43.389Z,925.91
2019-01-23T07:21:43.394Z,925.87
2019-01-23T07:22:43.368Z,925.87
2019-01-23T07:23:43.354Z,925.82
2019-01-23T07:24:43.336Z,925.79
2019-01-23T07:25:43.321Z,925.80
2019-01-23T07:26:43.308Z,925.80
2019-01-23T07:27:43.296Z,925.78
2019-01-23T07:28:49.030Z,925.74
2019-01-23T07:29:43.271Z,925.74
2019-01-23T07:30:43.258Z,925.78
2019-01-23T07:31:43.242Z,925.74
2019-01-23T07:32:43.229Z,925.76
2019-01-23T07:33:43.218Z,925.71
2019-01-23T07:34:43.204Z,925.75
2019-01-23T07:35:43.193Z,925.74
2019-01-23T07:36:43.179Z,925.73
2019-01-23T07:37:43.162Z,925.73
2019-01-23T07:38:43.157Z,925.74
2019-01-23T07:39:43.141Z,925.68
2019-01-23T07:40:43.149Z,925.70
2019-01-23T07:41:43.116Z,925.71
2019-01-23T07:42:43.095Z,925.66
2019-01-23T07:43:43.087Z,925.72
2019-01-23T07:44:43.085Z,925.67
2019-01-23T07:45:43.066Z,925.68
2019-01-23T07:46:43.046Z,925.70
2019-01-23T07:47:43.033Z,925.71
2019-01-23T07:48:43.020Z,925.68
2019-01-23T07:49:43.016Z,925.69
2019-01-23T07:50:43.039Z,925.66
2019-01-23T07:51:42.976Z,925.66
2019-01-23T07:52:42.965Z,925.68
2019-01-23T07:53:42.953Z,925.71
2019-01-23T07:54:42.946Z,925.71
2019-01-23T07:55:42.928Z,925.67
2019-01-23T07:56:42.914Z,925.71
2019-01-23T07:57:42.901Z,925.68
2019-01-23T07:58:42.879Z,925.71
2019-01-23T07:59:42.875Z,925.72
2019-01-23T08:00:42.863Z,925.75
2019-01-23T08:01:42.848Z,925.71
2019-01-23T08:02:42.835Z,925.74
2019-01-23T08:03:42.824Z,925.74
2019-01-23T08:04:42.812Z,925.71
2019-01-23T08:05:42.803Z,925.70
2019-01-23T08:06:42.782Z,925.68
2019-01-23T08:07:42.776Z,925.66
2019-01-23T08:08:42.755Z,925.66
2019-01-23T08:09:42.747Z,925.64
2019-01-23T08:10:42.731Z,925.68
2019-01-23T08:11:42.717Z,925.64
2019-01-23T08:12:42.708Z,925.68
2019-01-23T08:13:42.722Z,925.65
2019-01-23T08:14:42.683Z,925.70
2019-01-23T08:15:42.677Z,925.64
2019-01-23T08:16:42.662Z,925.64
2019-01-23T08:17:42.641Z,925.66
2019-01-23T08:18:42.628Z,925.62
2019-01-23T08:19:42.615Z,925.65
2019-01-23T08:20:42.616Z,925.63
2019-01-23T08:21:42.586Z,925.64
2019-01-23T08:22:42.575Z,925.66
2019-01-23T08:23:42.564Z,925.65
2019-01-23T08:24:42.551Z,925.68
2019-01-23T08:25:42.540Z,925.67
2019-01-23T08:26:42.524Z,925.65
2019-01-23T08:27:42.512Z,925.68
2019-01-23T08:28:42.499Z,925.66
2019-01-23T08:29:42.489Z,925.61
2019-01-23T08:30:42.471Z,925.61
2019-01-23T08:31:42.468Z,925.61
2019-01-23T08:32:42.454Z,925.56
2019-01-23T08:33:42.439Z,925.60
2019-01-23T08:34:42.430Z,925.57
2019-01-23T08:35:42.418Z,925.56
2019-01-23T08:36:42.403Z,925.57
2019-01-23T08:37:42.398Z,925.57
2019-01-23T08:38:42.380Z,925.56
2019-01-23T08:39:42.367Z,925.58
2019-01-23T08:40:42.407Z,925.60
2019-01-23T08:41:43.590Z,925.58
2019-01-23T08:42:42.331Z,925.53
2019-01-23T08:43:42.327Z,925.56
2019-01-23T08:44:42.313Z,925.55
2019-01-23T08:45:42.297Z,925.55
2019-01-23T08:46:42.288Z,925.55
2019-01-23T08:47:42.273Z,925.50
2019-01-23T08:48:42.312Z,925.52
2019-01-23T08:49:42.251Z,925.49
2019-01-23T08:50:42.242Z,925.50
2019-01-23T08:51:42.225Z,925.50
2019-01-23T08:52:42.211Z,925.49
2019-01-23T08:53:42.192Z,925.52
2019-01-23T08:54:42.189Z,925.53
2019-01-23T08:55:42.186Z,925.50
2019-01-23T08:56:42.174Z,925.53
2019-01-23T08:57:42.156Z,925.47
2019-01-23T08:58:42.144Z,925.46
2019-01-23T08:59:42.134Z,925.47
2019-01-23T09:00:46.032Z,925.48
2019-01-23T09:01:42.112Z,925.49
2019-01-23T09:02:42.100Z,925.47
2019-01-23T09:03:42.084Z,925.49
2019-01-23T09:04:42.075Z,925.45
2019-01-23T09:05:42.064Z,925.44
2019-01-23T09:06:42.048Z,925.43
2019-01-23T09:07:42.041Z,925.40
2019-01-23T09:08:42.035Z,925.41
2019-01-23T09:09:42.021Z,925.39
2019-01-23T09:10:42.007Z,925.39
2019-01-23T09:11:41.995Z,925.41
2019-01-23T09:12:41.997Z,925.36
2019-01-23T09:13:41.973Z,925.34
2019-01-23T09:14:41.963Z,925.37
2019-01-23T09:15:41.986Z,925.36
2019-01-23T09:16:41.931Z,925.38
2019-01-23T09:17:41.932Z,925.36
2019-01-23T09:18:41.922Z,925.36
2019-01-23T09:19:41.922Z,925.33
2019-01-23T09:20:41.897Z,925.36
2019-01-23T09:21:41.884Z,925.34
2019-01-23T09:22:41.876Z,925.38
2019-01-23T09:23:41.868Z,925.34
2019-01-23T09:24:41.856Z,925.35
2019-01-23T09:25:41.835Z,925.36
2019-01-23T09:26:41.836Z,925.31
2019-01-23T09:27:41.830Z,925.33
2019-01-23T09:28:41.813Z,925.27
2019-01-23T09:29:41.821Z,925.24
2019-01-23T09:30:41.795Z,925.19
2019-01-23T09:31:41.853Z,925.26
2019-01-23T09:32:41.774Z,925.27
2019-01-23T09:33:41.762Z,925.24
2019-01-23T09:34:41.757Z,925.28
2019-01-23T09:35:41.749Z,925.22
2019-01-23T09:36:41.739Z,925.20
2019-01-23T09:37:41.734Z,925.23
2019-01-23T09:38:41.717Z,925.19
2019-01-23T09:39:41.702Z,925.22
2019-01-23T09:40:41.702Z,925.22
2019-01-23T09:41:41.687Z,925.23
2019-01-23T09:42:41.683Z,925.22
2019-01-23T09:43:41.673Z,925.22
2019-01-23T09:44:41.663Z,925.26
2019-01-23T09:45:41.653Z,925.20
2019-01-23T09:46:41.642Z,925.25
2019-01-23T09:47:41.634Z,925.24
2019-01-23T09:48:41.624Z,925.25
2019-01-23T09:49:41.607Z,925.25
2019-01-23T09:50:41.613Z,925.27
2019-01-23T09:51:41.600Z,925.28
2019-01-23T09:52:41.581Z,925.30
2019-01-23T09:53:41.580Z,925.30
2019-01-23T09:54:41.563Z,925.29
2019-01-23T09:55:41.573Z,925.28
2019-01-23T09:56:41.557Z,925.27
2019-01-23T09:57:41.549Z,925.28
2019-01-23T09:58:41.542Z,925.22
2019-01-23T09:59:41.536Z,925.21
2019-01-23T10:00:41.525Z,925.19
2019-01-23T10:01:41.517Z,925.17
2019-01-23T10:02:41.506Z,925.16
2019-01-23T10:03:41.493Z,925.17
2019-01-23T10:04:41.491Z,925.16
2019-01-23T10:05:41.483Z,925.12
2019-01-23T10:06:41.474Z,925.08
2019-01-23T10:07:41.469Z,925.13
2019-01-23T10:08:41.457Z,925.13
2019-01-23T10:09:41.456Z,925.09
2019-01-23T10:10:41.464Z,925.11
2019-01-23T10:11:41.439Z,925.05
2019-01-23T10:12:41.424Z,925.07
2019-01-23T10:13:41.407Z,925.06
2019-01-23T10:14:41.405Z,925.02
2019-01-23T10:15:41.401Z,924.99
2019-01-23T10:16:41.391Z,924.97
2019-01-23T10:17:41.385Z,924.97
2019-01-23T10:18:41.374Z,924.96
2019-01-23T10:19:41.365Z,924.94
2019-01-23T10:20:41.359Z,924.91
2019-01-23T10:21:41.508Z,924.89
2019-01-23T10:22:43.320Z,924.93
2019-01-23T10:23:41.331Z,924.91
2019-01-23T10:24:41.319Z,924.89
2019-01-23T10:25:41.316Z,924.87
2019-01-23T10:26:41.304Z,924.92
2019-01-23T10:27:41.292Z,924.85
2019-01-23T10:28:41.288Z,924.88
2019-01-23T10:29:41.277Z,924.90
2019-01-23T10:30:41.268Z,924.93
2019-01-23T10:31:41.261Z,924.88
2019-01-23T10:32:41.269Z,924.86
2019-01-23T10:33:41.245Z,924.85
2019-01-23T10:34:41.229Z,924.86
2019-01-23T10:35:41.231Z,924.85
2019-01-23T10:36:41.219Z,924.86
2019-01-23T10:37:41.212Z,924.86
2019-01-23T10:38:41.203Z,924.84
2019-01-23T10:39:41.196Z,924.83
2019-01-23T10:40:41.184Z,924.84
2019-01-23T10:41:41.181Z,924.80
2019-01-23T10:42:41.184Z,924.81
2019-01-23T10:43:41.162Z,924.78
2019-01-23T10:44:41.154Z,924.81
2019-01-23T10:45:41.144Z,924.83
2019-01-23T10:46:41.140Z,924.84
2019-01-23T10:47:41.131Z,924.80
2019-01-23T10:48:41.117Z,924.83
2019-01-23T10:49:41.136Z,924.82
2019-01-23T10:50:41.107Z,924.82
2019-01-23T10:51:41.095Z,924.82
2019-01-23T10:52:41.099Z,924.77
2019-01-23T10:53:41.081Z,924.81
2019-01-23T10:54:41.073Z,924.78
2019-01-23T10:55:41.075Z,924.77
2019-01-23T10:56:41.056Z,924.78
2019-01-23T10:57:41.049Z,924.78
2019-01-23T10:58:41.042Z,924.79
2019-01-23T10:59:41.049Z,924.75
2019-01-23T11:00:41.024Z,924.77
2019-01-23T11:01:41.021Z,924.78
2019-01-23T11:02:41.025Z,924.75
2019-01-23T11:03:41.012Z,924.75
2019-01-23T11:04:41.763Z,924.69
2019-01-23T11:05:40.991Z,924.77
2019-01-23T11:06:40.983Z,924.71
2019-01-23T11:07:40.978Z,924.68
2019-01-23T11:08:40.963Z,924.70
2019-01-23T11:09:40.963Z,924.72
2019-01-23T11:10:40.957Z,924.71
2019-01-23T11:11:40.950Z,924.70
2019-01-23T11:12:40.944Z,924.66
2019-01-23T11:13:40.934Z,924.69
2019-01-23T11:14:40.929Z,924.70
2019-01-23T11:15:40.925Z,924.68
2019-01-23T11:16:40.912Z,924.69
2019-01-23T11:17:40.907Z,924.71
2019-01-23T11:18:40.897Z,924.64
2019-01-23T11:19:40.894Z,924.66
2019-01-23T11:20:41.467Z,924.68
2019-01-23T11:21:40.876Z,924.68
2019-01-23T11:22:40.868Z,924.70
2019-01-23T11:23:40.857Z,924.64
2019-01-23T11:24:40.853Z,924.65
2019-01-23T11:25:40.846Z,924.64
2019-01-23T11:26:40.836Z,924.61
2019-01-23T11:27:41.578Z,924.63
2019-01-23T11:28:40.829Z,924.64
2019-01-23T11:29:40.825Z,924.59
2019-01-23T11:30:40.806Z,924.63
2019-01-23T11:31:40.798Z,924.57
2019-01-23T11:32:40.788Z,924.59
2019-01-23T11:33:40.782Z,924.59
2019-01-23T11:34:40.777Z,924.59
2019-01-23T11:35:40.762Z,924.62
2019-01-23T11:36:40.754Z,924.61
2019-01-23T11:37:40.756Z,924.57
2019-01-23T11:38:40.743Z,924.56
2019-01-23T11:39:40.736Z,924.55
2019-01-23T11:40:40.726Z,924.56
2019-01-23T11:41:40.734Z,924.55
2019-01-23T11:42:40.710Z,924.52
2019-01-23T11:43:40.701Z,924.52
2019-01-23T11:44:40.694Z,924.48
2019-01-23T11:45:40.686Z,924.50
2019-01-23T11:46:40.680Z,924.50
2019-01-23T11:47:40.673Z,924.50
2019-01-23T11:48:40.663Z,924.46
2019-01-23T11:49:40.641Z,924.47
2019-01-23T11:50:40.658Z,924.48
2019-01-23T11:51:40.636Z,924.48
2019-01-23T11:52:40.633Z,924.47
2019-01-23T11:53:40.617Z,924.43
2019-01-23T11:54:40.609Z,924.49
2019-01-23T11:55:40.595Z,924.45
2019-01-23T11:56:40.590Z,924.47
2019-01-23T11:57:40.586Z,924.47
2019-01-23T11:58:40.573Z,924.52
2019-01-23T11:59:40.557Z,924.48
2019-01-23T12:00:40.554Z,924.45
2019-01-23T12:01:40.545Z,924.49
2019-01-23T12:02:40.578Z,924.49
2019-01-23T12:03:40.528Z,924.47
2019-01-23T12:04:40.519Z,924.48
2019-01-23T12:05:40.502Z,924.47
2019-01-23T12:06:40.497Z,924.47
2019-01-23T12:07:40.489Z,924.47
2019-01-23T12:08:40.471Z,924.51
2019-01-23T12:09:40.485Z,924.49
2019-01-23T12:10:40.461Z,924.49
2019-01-23T12:11:40.454Z,924.49
2019-01-23T12:12:40.441Z,924.49
2019-01-23T12:13:40.438Z,924.49
2019-01-23T12:14:40.427Z,924.46
2019-01-23T12:15:40.939Z,924.45
2019-01-23T12:16:40.405Z,924.47
2019-01-23T12:17:40.396Z,924.45
2019-01-23T12:18:40.386Z,924.48
2019-01-23T12:19:40.377Z,924.50
2019-01-23T12:20:40.367Z,924.45
2019-01-23T12:21:40.351Z,924.43
2019-01-23T12:22:40.359Z,924.44
2019-01-23T12:23:40.336Z,924.44
2019-01-23T12:24:40.325Z,924.42
2019-01-23T12:25:40.318Z,924.39
2019-01-23T12:26:40.307Z,924.40
2019-01-23T12:27:40.298Z,924.43
2019-01-23T12:28:40.289Z,924.37